createdAt,value
2023-01-19T00:00:11.063Z,36.00
2023-01-19T00:02:38.895Z,25.75
2023-01-19T00:05:06.531Z,22.73
2023-01-19T00:07:34.187Z,20.17
2023-01-19T00:10:01.763Z,27.67
2023-01-19T00:12:29.452Z,24.15
2023-01-19T00:14:56.894Z,21.88
2023-01-19T00:17:24.334Z,23.55
2023-01-19T00:19:51.822Z,27.58
2023-01-19T00:22:19.519Z,22.00
2023-01-19T00:24:47.315Z,22.17
2023-01-19T00:27:14.781Z,23.08
2023-01-19T00:29:42.240Z,23.98
2023-01-19T00:32:09.681Z,26.77
2023-01-19T00:34:39.790Z,25.83
2023-01-19T00:37:07.844Z,29.65
2023-01-19T00:39:35.324Z,29.45
2023-01-19T00:42:21.191Z,36.97
2023-01-19T00:44:48.611Z,37.30
2023-01-19T00:47:16.111Z,30.23
2023-01-19T00:49:43.599Z,43.17
2023-01-19T00:52:11.258Z,48.08
2023-01-19T00:54:38.708Z,41.72
2023-01-19T00:57:06.214Z,44.58
2023-01-19T00:59:33.723Z,41.03
2023-01-19T01:02:01.295Z,36.35
2023-01-19T01:04:28.969Z,28.58
2023-01-19T01:06:56.730Z,29.35
2023-01-19T01:09:24.510Z,38.58
2023-01-19T01:11:52.049Z,43.95
2023-01-19T01:14:19.582Z,47.22
2023-01-19T01:16:47.095Z,44.72
2023-01-19T01:19:14.706Z,34.30
2023-01-19T01:21:42.297Z,41.45
2023-01-19T01:24:09.895Z,38.28
2023-01-19T01:26:39.857Z,37.78
2023-01-19T01:29:08.553Z,37.85
2023-01-19T01:31:36.252Z,30.03
2023-01-19T01:34:03.764Z,32.47
2023-01-19T01:36:33.940Z,40.00
2023-01-19T01:39:01.406Z,46.55
2023-01-19T01:41:28.911Z,37.42
2023-01-19T01:43:58.766Z,37.53
2023-01-19T01:46:26.582Z,48.67
2023-01-19T01:49:14.262Z,47.72
2023-01-19T01:51:43.003Z,54.45
2023-01-19T01:54:23.374Z,48.33
2023-01-19T01:56:51.359Z,51.38
2023-01-19T01:59:29.855Z,51.53
2023-01-19T02:02:16.709Z,55.75
2023-01-19T02:04:48.006Z,47.20
2023-01-19T02:07:34.522Z,46.28
2023-01-19T02:10:20.585Z,43.72
2023-01-19T02:13:06.609Z,42.80
2023-01-19T02:15:34.018Z,42.63
2023-01-19T02:18:01.452Z,43.35
2023-01-19T02:20:29.015Z,40.85
2023-01-19T02:22:56.642Z,46.42
2023-01-19T02:25:25.721Z,46.28
2023-01-19T02:27:53.131Z,37.75
2023-01-19T02:30:20.743Z,29.52
2023-01-19T02:32:48.179Z,25.77
2023-01-19T02:35:15.643Z,25.90
2023-01-19T02:37:43.247Z,22.40
2023-01-19T02:40:14.279Z,23.98
2023-01-19T02:42:46.126Z,27.48
2023-01-19T02:45:14.636Z,18.67
2023-01-19T02:47:45.639Z,20.00
2023-01-19T02:50:32.245Z,21.88
2023-01-19T02:53:01.833Z,29.17
2023-01-19T02:55:29.554Z,34.60
2023-01-19T02:58:02.224Z,50.35
2023-01-19T03:00:48.723Z,49.63
2023-01-19T03:03:16.221Z,42.95
2023-01-19T03:05:49.640Z,49.25
2023-01-19T03:08:18.294Z,41.15
2023-01-19T03:11:12.537Z,39.83
2023-01-19T03:13:47.086Z,40.85
2023-01-19T03:16:18.048Z,38.75
2023-01-19T03:18:46.474Z,38.13
2023-01-19T03:21:14.068Z,37.60
2023-01-19T03:23:41.831Z,40.08
2023-01-19T03:26:10.362Z,52.08
2023-01-19T03:28:37.961Z,47.60
2023-01-19T03:31:18.769Z,40.40
2023-01-19T03:33:48.289Z,48.58
2023-01-19T03:36:17.662Z,42.33
2023-01-19T03:38:45.104Z,43.20
2023-01-19T03:41:13.176Z,38.33
2023-01-19T03:43:40.618Z,37.70
2023-01-19T03:46:08.539Z,36.75
2023-01-19T03:48:36.200Z,45.20
2023-01-19T03:51:04.457Z,27.38
2023-01-19T03:53:31.984Z,24.85
2023-01-19T03:55:59.643Z,24.48
2023-01-19T03:58:27.138Z,29.70
2023-01-19T04:00:54.688Z,28.88
2023-01-19T04:03:22.120Z,33.35
2023-01-19T04:05:49.572Z,26.38
2023-01-19T04:08:16.970Z,31.77
2023-01-19T04:10:44.424Z,33.45
2023-01-19T04:13:11.841Z,27.90
2023-01-19T04:15:39.355Z,30.48
2023-01-19T04:18:07.162Z,33.60
2023-01-19T04:20:34.640Z,23.90
2023-01-19T04:23:02.595Z,31.05
2023-01-19T04:25:30.305Z,40.80
2023-01-19T04:28:00.572Z,51.25
2023-01-19T04:30:28.125Z,66.90
2023-01-19T04:32:56.467Z,60.65
2023-01-19T04:35:26.776Z,59.17
2023-01-19T04:37:54.170Z,58.67
2023-01-19T04:40:21.639Z,52.47
2023-01-19T04:42:49.251Z,38.97
2023-01-19T04:45:17.519Z,35.28
2023-01-19T04:47:45.061Z,37.13
2023-01-19T04:50:12.595Z,32.47
2023-01-19T04:52:40.050Z,35.78
2023-01-19T04:55:07.858Z,40.75
2023-01-19T04:57:35.437Z,38.83
2023-01-19T05:00:03.194Z,39.88
2023-01-19T05:02:30.845Z,56.85
2023-01-19T05:04:58.339Z,56.38
2023-01-19T05:07:25.959Z,53.35
2023-01-19T05:09:54.093Z,48.20
2023-01-19T05:12:21.597Z,51.58
2023-01-19T05:14:49.087Z,56.53
2023-01-19T05:17:16.547Z,60.45
2023-01-19T05:19:43.949Z,72.82
2023-01-19T05:22:11.497Z,94.78
2023-01-19T05:24:39.063Z,112.85
2023-01-19T05:27:06.542Z,109.30
2023-01-19T05:29:34.477Z,114.90
2023-01-19T05:32:02.078Z,113.88
2023-01-19T05:34:29.850Z,124.65
2023-01-19T05:36:57.577Z,137.27
2023-01-19T05:39:26.220Z,141.32
2023-01-19T05:41:53.665Z,150.50
2023-01-19T05:44:24.341Z,132.80
2023-01-19T05:46:52.106Z,125.97
2023-01-19T05:49:19.590Z,132.35
2023-01-19T05:51:47.092Z,137.40
2023-01-19T05:54:15.532Z,122.22
2023-01-19T05:56:43.111Z,146.23
2023-01-19T05:59:10.718Z,147.27
2023-01-19T06:01:39.885Z,144.20
2023-01-19T06:04:07.664Z,128.60
2023-01-19T06:06:35.182Z,75.68
2023-01-19T06:09:02.661Z,70.68
2023-01-19T06:11:30.228Z,65.55
2023-01-19T06:13:57.786Z,63.47
2023-01-19T06:16:25.418Z,63.33
2023-01-19T06:18:54.690Z,64.18
2023-01-19T06:21:22.108Z,66.97
2023-01-19T06:23:49.562Z,65.78
2023-01-19T06:26:17.037Z,66.30
2023-01-19T06:28:44.511Z,67.63
2023-01-19T06:31:12.103Z,75.55
2023-01-19T06:33:39.717Z,73.22
2023-01-19T06:36:07.330Z,66.32
2023-01-19T06:38:34.814Z,69.50
2023-01-19T06:41:05.010Z,80.70
2023-01-19T06:43:32.571Z,79.22
2023-01-19T06:46:03.286Z,88.47
2023-01-19T06:48:30.961Z,80.70
2023-01-19T06:50:59.674Z,87.65
2023-01-19T06:53:28.531Z,85.60
2023-01-19T06:55:59.835Z,82.77
2023-01-19T06:58:28.107Z,88.53
2023-01-19T07:00:56.397Z,84.78
2023-01-19T07:03:24.484Z,86.43
2023-01-19T07:05:52.630Z,78.68
2023-01-19T07:08:20.391Z,83.18
2023-01-19T07:11:24.688Z,90.07
2023-01-19T07:13:35.604Z,98.65
2023-01-19T07:16:08.122Z,90.63
2023-01-19T07:18:36.021Z,91.22
2023-01-19T07:21:03.453Z,90.93
2023-01-19T07:23:31.011Z,93.53
2023-01-19T07:25:59.036Z,84.45
2023-01-19T07:28:26.553Z,88.00
2023-01-19T07:30:57.438Z,88.85
2023-01-19T07:33:29.367Z,94.03
2023-01-19T07:35:56.926Z,85.72
2023-01-19T07:38:24.345Z,86.50
2023-01-19T07:40:51.833Z,87.35
2023-01-19T07:43:19.990Z,86.25
2023-01-19T07:45:47.610Z,108.57
2023-01-19T07:48:15.234Z,141.38
2023-01-19T07:50:42.672Z,126.78
2023-01-19T07:53:11.900Z,120.15
2023-01-19T07:55:39.366Z,103.00
2023-01-19T07:58:08.268Z,124.72
2023-01-19T08:00:36.065Z,116.95
2023-01-19T08:03:04.384Z,107.80
2023-01-19T08:05:35.085Z,100.60
2023-01-19T08:08:02.555Z,98.35
2023-01-19T08:10:30.259Z,96.18
2023-01-19T08:12:58.272Z,105.93
2023-01-19T08:15:26.060Z,75.97
2023-01-19T08:18:00.486Z,50.65
2023-01-19T08:20:28.130Z,50.00
2023-01-19T08:23:03.261Z,58.13
2023-01-19T08:25:37.914Z,61.10
2023-01-19T08:28:05.850Z,62.28
2023-01-19T08:30:33.487Z,55.65
2023-01-19T08:33:18.989Z,74.35
2023-01-19T08:35:54.766Z,69.78
2023-01-19T08:38:23.236Z,75.00
2023-01-19T08:40:50.790Z,90.18
2023-01-19T08:43:18.338Z,85.07
2023-01-19T08:45:53.610Z,102.45
2023-01-19T08:48:22.564Z,72.05
2023-01-19T08:50:51.519Z,73.00
2023-01-19T08:53:20.555Z,61.45
2023-01-19T08:55:48.015Z,53.10
2023-01-19T08:58:17.905Z,55.70
2023-01-19T09:00:45.613Z,53.67
2023-01-19T09:03:14.051Z,52.97
2023-01-19T09:05:42.151Z,46.05
2023-01-19T09:08:10.504Z,51.57
2023-01-19T09:10:39.564Z,48.80
2023-01-19T09:15:37.843Z,48.42
2023-01-19T09:18:06.048Z,63.53
2023-01-19T09:20:34.886Z,64.38
2023-01-19T09:23:02.289Z,74.32
2023-01-19T09:25:30.014Z,89.88
2023-01-19T09:27:57.615Z,90.43
2023-01-19T09:30:25.065Z,82.65
2023-01-19T09:32:52.557Z,87.85
2023-01-19T09:35:20.079Z,89.35
2023-01-19T09:37:48.079Z,89.45
2023-01-19T09:40:16.372Z,70.95
2023-01-19T09:42:44.485Z,60.88
2023-01-19T09:45:15.206Z,67.88
2023-01-19T09:47:42.856Z,48.28
2023-01-19T09:50:36.856Z,36.53
2023-01-19T09:53:07.520Z,21.02
2023-01-19T09:55:35.002Z,19.80
2023-01-19T10:00:30.103Z,15.13
2023-01-19T10:02:59.461Z,11.75
2023-01-19T10:08:13.622Z,14.15
2023-01-19T10:10:42.530Z,14.52
2023-01-19T10:13:13.178Z,17.08
2023-01-19T10:15:46.973Z,18.75
2023-01-19T10:18:21.632Z,21.73
2023-01-19T10:20:53.862Z,23.25
2023-01-19T10:23:26.561Z,24.77
2023-01-19T10:25:54.243Z,29.27
2023-01-19T10:28:23.964Z,21.98
2023-01-19T10:30:51.651Z,21.77
2023-01-19T10:33:19.362Z,27.85
2023-01-19T10:35:49.104Z,24.73
2023-01-19T10:38:22.356Z,13.10
2023-01-19T10:40:50.092Z,11.25
2023-01-19T10:43:36.288Z,12.07
2023-01-19T10:46:06.308Z,10.30
2023-01-19T10:48:38.283Z,13.75
2023-01-19T10:51:06.025Z,13.00
2023-01-19T10:53:33.948Z,11.13
2023-01-19T10:56:17.304Z,13.90
2023-01-19T10:58:44.932Z,14.20
2023-01-19T11:01:16.721Z,15.32
2023-01-19T11:03:47.385Z,10.95
2023-01-19T11:06:15.726Z,9.60
2023-01-19T11:08:43.757Z,11.52
2023-01-19T11:14:27.909Z,7.93
2023-01-19T11:16:56.003Z,12.38
2023-01-19T11:19:26.042Z,8.70
2023-01-19T11:21:53.638Z,7.28
2023-01-19T11:24:21.097Z,7.35
2023-01-19T11:26:49.343Z,8.90
2023-01-19T11:29:21.090Z,10.18
2023-01-19T11:31:48.872Z,10.32
2023-01-19T11:34:35.266Z,9.07
2023-01-19T11:37:31.971Z,10.50
2023-01-19T11:40:00.311Z,10.82
2023-01-19T11:42:27.858Z,11.88
2023-01-19T11:45:04.128Z,11.07
2023-01-19T11:47:34.560Z,12.23
2023-01-19T11:50:03.965Z,7.45
2023-01-19T11:52:35.199Z,8.50
2023-01-19T11:55:04.530Z,7.97
2023-01-19T11:57:32.017Z,6.75
2023-01-19T12:00:03.718Z,7.97
2023-01-19T12:02:43.925Z,9.40
2023-01-19T12:05:13.363Z,7.05
2023-01-19T12:07:41.064Z,8.55
2023-01-19T12:10:15.994Z,8.00
2023-01-19T12:12:43.460Z,9.23
2023-01-19T12:15:28.006Z,10.98
2023-01-19T12:17:56.054Z,13.25
2023-01-19T12:20:28.508Z,16.83
2023-01-19T12:22:59.818Z,20.90
2023-01-19T12:25:29.152Z,17.15
2023-01-19T12:27:56.726Z,15.57
2023-01-19T12:30:25.063Z,14.00
2023-01-19T12:32:52.677Z,14.50
2023-01-19T12:35:39.076Z,13.25
2023-01-19T12:38:23.602Z,11.90
2023-01-19T12:41:06.660Z,11.13
2023-01-19T12:43:34.599Z,10.30
2023-01-19T12:46:05.697Z,11.80
2023-01-19T12:48:34.664Z,16.10
2023-01-19T12:51:03.535Z,14.63
2023-01-19T12:53:31.234Z,20.13
2023-01-19T12:56:16.596Z,15.25
2023-01-19T13:01:20.215Z,15.73
2023-01-19T13:04:09.901Z,12.90
2023-01-19T13:06:49.967Z,12.05
2023-01-19T13:12:07.719Z,13.52
2023-01-19T13:14:36.068Z,11.00
2023-01-19T13:17:03.934Z,6.72
2023-01-19T13:19:38.473Z,9.23
2023-01-19T13:22:24.774Z,11.57
2023-01-19T13:25:11.009Z,10.35
2023-01-19T13:27:41.765Z,11.35
2023-01-19T13:30:13.211Z,13.73
2023-01-19T13:32:41.644Z,10.88
2023-01-19T13:35:12.994Z,8.23
2023-01-19T13:37:41.770Z,9.85
2023-01-19T13:40:15.813Z,11.00
2023-01-19T13:42:43.864Z,9.32
2023-01-19T13:45:24.730Z,9.20
2023-01-19T13:47:58.800Z,10.52
2023-01-19T13:50:27.492Z,8.82
2023-01-19T13:52:56.747Z,8.98
2023-01-19T13:55:24.663Z,11.95
2023-01-19T13:57:54.340Z,9.65
2023-01-19T14:00:28.737Z,11.38
2023-01-19T14:02:56.469Z,9.85
2023-01-19T14:05:26.954Z,8.55
2023-01-19T14:08:20.737Z,9.98
2023-01-19T14:10:49.048Z,8.77
2023-01-19T14:13:25.215Z,10.93
2023-01-19T14:15:55.481Z,10.18
2023-01-19T14:18:23.598Z,12.20
2023-01-19T14:20:57.448Z,10.50
2023-01-19T14:23:44.567Z,10.23
2023-01-19T14:26:43.918Z,14.98
2023-01-19T14:29:11.444Z,14.77
2023-01-19T14:31:46.406Z,16.60
2023-01-19T14:34:32.907Z,16.25
2023-01-19T14:37:00.715Z,17.38
2023-01-19T14:39:49.900Z,12.75
2023-01-19T14:42:35.920Z,12.95
2023-01-19T14:45:03.891Z,17.73
2023-01-19T14:47:35.622Z,21.55
2023-01-19T14:50:05.150Z,12.15
2023-01-19T14:52:33.545Z,15.93
2023-01-19T14:55:01.091Z,18.02
2023-01-19T14:57:28.533Z,17.88
2023-01-19T14:59:56.163Z,13.35
2023-01-19T15:02:23.774Z,10.70
2023-01-19T15:04:55.492Z,15.48
2023-01-19T15:07:23.813Z,14.90
2023-01-19T15:09:51.308Z,19.20
2023-01-19T15:12:19.040Z,14.25
2023-01-19T15:14:46.512Z,15.77
2023-01-19T15:17:17.871Z,15.43
2023-01-19T15:19:45.585Z,13.38
2023-01-19T15:22:13.812Z,14.05
2023-01-19T15:24:41.588Z,18.05
2023-01-19T15:27:13.006Z,12.35
2023-01-19T15:29:40.697Z,14.60
2023-01-19T15:32:14.357Z,17.52
2023-01-19T15:34:42.420Z,12.90
2023-01-19T15:37:09.875Z,13.98
2023-01-19T15:39:37.581Z,14.25
2023-01-19T15:42:05.308Z,10.93
2023-01-19T15:44:34.956Z,11.57
2023-01-19T15:49:31.035Z,14.05
2023-01-19T15:51:58.626Z,14.43
2023-01-19T15:54:26.167Z,17.25
2023-01-19T15:56:53.782Z,15.35
2023-01-19T15:59:21.358Z,13.52
2023-01-19T16:01:50.953Z,16.42
2023-01-19T16:04:18.703Z,14.38
2023-01-19T16:06:46.174Z,13.35
2023-01-19T16:09:18.597Z,12.30
2023-01-19T16:11:46.168Z,23.55
2023-01-19T16:14:14.455Z,14.73
2023-01-19T16:16:45.008Z,18.80
2023-01-19T16:19:14.973Z,18.17
2023-01-19T16:21:44.105Z,17.73
2023-01-19T16:24:37.235Z,18.45
2023-01-19T16:27:04.770Z,18.42
2023-01-19T16:29:32.327Z,15.00
2023-01-19T16:31:59.886Z,16.42
2023-01-19T16:34:27.438Z,18.90
2023-01-19T16:36:54.988Z,16.33
2023-01-19T16:39:22.707Z,14.88
2023-01-19T16:41:50.143Z,12.52
2023-01-19T16:44:17.761Z,12.88
2023-01-19T16:46:45.847Z,16.58
2023-01-19T16:49:14.230Z,18.55
2023-01-19T16:51:42.161Z,15.85
2023-01-19T16:54:12.424Z,15.82
2023-01-19T16:56:39.885Z,16.05
2023-01-19T16:59:07.375Z,19.85
2023-01-19T17:01:35.263Z,15.70
2023-01-19T17:04:03.224Z,15.55
2023-01-19T17:06:30.715Z,13.85
2023-01-19T17:08:58.275Z,15.50
2023-01-19T17:11:27.098Z,14.40
2023-01-19T17:14:01.274Z,14.90
2023-01-19T17:16:29.182Z,16.20
2023-01-19T17:19:02.052Z,15.32
2023-01-19T17:21:29.546Z,21.55
2023-01-19T17:23:57.103Z,21.63
2023-01-19T17:26:31.383Z,22.33
2023-01-19T17:29:02.284Z,24.40
2023-01-19T17:31:30.726Z,21.50
2023-01-19T17:33:58.516Z,21.13
2023-01-19T17:36:27.638Z,24.40
2023-01-19T17:38:55.853Z,26.95
2023-01-19T17:41:25.183Z,24.45
2023-01-19T17:43:52.756Z,19.75
2023-01-19T17:46:20.906Z,19.55
2023-01-19T17:48:55.131Z,18.85
2023-01-19T17:51:25.460Z,20.48
2023-01-19T17:53:53.483Z,21.50
2023-01-19T17:56:22.137Z,21.33
2023-01-19T17:58:49.885Z,19.23
2023-01-19T18:01:21.874Z,21.17
2023-01-19T18:03:49.614Z,22.45
2023-01-19T18:06:17.179Z,19.70
2023-01-19T18:08:46.319Z,27.42
2023-01-19T18:11:13.969Z,21.00
2023-01-19T18:13:42.913Z,21.00
2023-01-19T18:16:11.323Z,20.88
2023-01-19T18:18:43.889Z,19.80
2023-01-19T18:21:12.275Z,19.08
2023-01-19T18:23:39.878Z,18.13
2023-01-19T18:26:17.486Z,19.38
2023-01-19T18:28:45.072Z,23.58
2023-01-19T18:31:13.428Z,27.40
2023-01-19T18:33:41.048Z,23.75
2023-01-19T18:36:11.820Z,24.25
2023-01-19T18:38:39.356Z,22.15
2023-01-19T18:41:08.017Z,26.95
2023-01-19T18:43:35.642Z,28.25
2023-01-19T18:46:03.180Z,29.90
2023-01-19T18:48:31.048Z,29.02
2023-01-19T18:51:03.382Z,27.75
2023-01-19T18:53:32.248Z,24.30
2023-01-19T18:56:00.149Z,21.65
2023-01-19T18:58:31.719Z,22.10
2023-01-19T19:01:02.901Z,21.83
2023-01-19T19:03:30.465Z,24.90
2023-01-19T19:05:58.115Z,24.23
2023-01-19T19:08:25.744Z,26.60
2023-01-19T19:10:53.197Z,25.85
2023-01-19T19:13:22.004Z,30.55
2023-01-19T19:15:50.792Z,29.42
2023-01-19T19:18:18.340Z,33.67
2023-01-19T19:20:46.002Z,33.20
2023-01-19T19:23:13.552Z,33.30
2023-01-19T19:25:41.120Z,32.70
2023-01-19T19:28:08.735Z,34.53
2023-01-19T19:30:38.196Z,52.10
2023-01-19T19:33:06.991Z,56.05
2023-01-19T19:35:34.700Z,35.47
2023-01-19T19:38:02.414Z,27.20
2023-01-19T19:40:30.296Z,24.70
2023-01-19T19:42:58.945Z,19.05
2023-01-19T19:45:26.998Z,18.17
2023-01-19T19:47:54.435Z,23.65
2023-01-19T19:50:21.839Z,24.52
2023-01-19T19:52:49.268Z,30.73
2023-01-19T19:55:16.772Z,30.02
2023-01-19T19:57:44.530Z,23.77
2023-01-19T20:00:12.565Z,20.33
2023-01-19T20:02:41.081Z,19.67
2023-01-19T20:05:08.699Z,20.30
2023-01-19T20:07:36.202Z,21.88
2023-01-19T20:10:03.661Z,23.67
2023-01-19T20:12:31.248Z,25.13
2023-01-19T20:14:58.795Z,30.48
2023-01-19T20:17:26.458Z,22.02
2023-01-19T20:19:59.137Z,25.75
2023-01-19T20:22:26.694Z,29.02
2023-01-19T20:24:54.244Z,28.33
2023-01-19T20:27:21.771Z,36.90
2023-01-19T20:29:51.915Z,30.23
2023-01-19T20:32:19.458Z,39.63
2023-01-19T20:34:49.997Z,34.70
2023-01-19T20:37:17.833Z,27.20
2023-01-19T20:39:45.646Z,25.98
2023-01-19T20:42:23.088Z,23.83
2023-01-19T20:44:50.612Z,26.13
2023-01-19T20:47:18.518Z,21.80
2023-01-19T20:49:46.065Z,22.65
2023-01-19T20:52:13.806Z,26.02
2023-01-19T20:54:41.431Z,30.90
2023-01-19T20:57:08.952Z,34.80
2023-01-19T20:59:38.427Z,34.13
2023-01-19T21:02:08.352Z,31.08
2023-01-19T21:04:35.974Z,29.25
2023-01-19T21:07:03.481Z,32.67
2023-01-19T21:09:31.125Z,32.17
2023-01-19T21:11:58.593Z,29.05
2023-01-19T21:14:26.122Z,27.45
2023-01-19T21:16:56.563Z,29.02
2023-01-19T21:19:24.464Z,27.63
2023-01-19T21:21:52.016Z,26.98
2023-01-19T21:24:19.565Z,27.88
2023-01-19T21:26:47.149Z,27.08
2023-01-19T21:29:14.691Z,27.77
2023-01-19T21:31:42.486Z,28.95
2023-01-19T21:34:10.117Z,26.65
2023-01-19T21:36:37.679Z,24.20
2023-01-19T21:39:06.540Z,27.83
2023-01-19T21:41:36.128Z,24.38
2023-01-19T21:46:33.231Z,32.60
2023-01-19T21:51:28.892Z,34.10
2023-01-19T21:53:59.718Z,42.95
2023-01-19T21:56:30.821Z,46.55
2023-01-19T21:58:58.629Z,47.03
2023-01-19T22:01:26.257Z,46.25
2023-01-19T22:03:55.088Z,50.45
2023-01-19T22:06:22.679Z,41.93
2023-01-19T22:08:50.430Z,34.78
2023-01-19T22:11:18.579Z,36.28
2023-01-19T22:13:46.217Z,35.50
2023-01-19T22:16:17.557Z,29.90
2023-01-19T22:18:46.176Z,38.80
2023-01-19T22:21:14.739Z,58.92
2023-01-19T22:23:42.650Z,73.85
2023-01-19T22:26:10.703Z,62.83
2023-01-19T22:28:38.259Z,61.10
2023-01-19T22:31:06.149Z,69.72
2023-01-19T22:33:33.749Z,73.63
2023-01-19T22:36:11.398Z,63.70
2023-01-19T22:38:40.109Z,62.65
2023-01-19T22:41:18.294Z,69.60
2023-01-19T22:43:45.962Z,60.47
2023-01-19T22:46:13.559Z,83.93
2023-01-19T22:48:41.212Z,91.95
2023-01-19T22:51:08.927Z,85.22
2023-01-19T22:53:36.478Z,82.88
2023-01-19T22:56:14.032Z,79.22
2023-01-19T22:58:41.798Z,66.32
2023-01-19T23:01:09.572Z,65.13
2023-01-19T23:03:38.692Z,62.50
2023-01-19T23:06:10.411Z,49.00
2023-01-19T23:08:38.111Z,54.28
2023-01-19T23:11:06.527Z,61.35
2023-01-19T23:13:37.127Z,58.88
2023-01-19T23:16:04.951Z,57.83
2023-01-19T23:18:32.753Z,53.45
2023-01-19T23:21:06.836Z,46.72
2023-01-19T23:23:35.116Z,35.97
2023-01-19T23:26:03.145Z,32.65
2023-01-19T23:28:31.713Z,33.15
2023-01-19T23:31:02.508Z,28.38
2023-01-19T23:33:31.398Z,25.80
2023-01-19T23:35:58.990Z,25.88
2023-01-19T23:38:26.485Z,26.33
2023-01-19T23:40:57.519Z,23.30
2023-01-19T23:43:25.817Z,22.00
2023-01-19T23:45:53.609Z,26.48
2023-01-19T23:48:21.435Z,23.13
2023-01-19T23:50:49.057Z,27.42
2023-01-19T23:53:16.561Z,25.58
2023-01-19T23:55:44.164Z,24.73
2023-01-19T23:58:11.693Z,26.27
